sensor_id;sensor_type;location;lat;lon;timestamp;temperature;humidity
53643;DHT22;39546;45.534;12.048;2023-03-14T00:02:36;15.30;83.00
53643;DHT22;39546;45.534;12.048;2023-03-14T00:08:40;15.30;82.90
53643;DHT22;39546;45.534;12.048;2023-03-14T00:14:42;15.30;82.60
53643;DHT22;39546;45.534;12.048;2023-03-14T00:20:45;15.30;82.60
53643;DHT22;39546;45.534;12.048;2023-03-14T00:26:47;15.30;82.80
53643;DHT22;39546;45.534;12.048;2023-03-14T00:32:49;15.30;82.90
53643;DHT22;39546;45.534;12.048;2023-03-14T00:38:52;15.10;83.00
53643;DHT22;39546;45.534;12.048;2023-03-14T00:44:53;15.20;83.10
53643;DHT22;39546;45.534;12.048;2023-03-14T00:50:55;15.20;83.20
53643;DHT22;39546;45.534;12.048;2023-03-14T00:56:57;15.00;83.20
53643;DHT22;39546;45.534;12.048;2023-03-14T01:03:00;15.10;83.80
53643;DHT22;39546;45.534;12.048;2023-03-14T01:09:02;15.00;83.70
53643;DHT22;39546;45.534;12.048;2023-03-14T01:15:05;15.10;83.90
53643;DHT22;39546;45.534;12.048;2023-03-14T01:21:17;15.10;83.50
53643;DHT22;39546;45.534;12.048;2023-03-14T01:27:20;15.00;83.40
53643;DHT22;39546;45.534;12.048;2023-03-14T01:33:22;14.80;83.10
53643;DHT22;39546;45.534;12.048;2023-03-14T01:39:23;14.70;83.80
53643;DHT22;39546;45.534;12.048;2023-03-14T01:52:09;14.70;83.60
53643;DHT22;39546;45.534;12.048;2023-03-14T01:58:12;14.60;83.90
53643;DHT22;39546;45.534;12.048;2023-03-14T02:04:17;14.60;84.10
53643;DHT22;39546;45.534;12.048;2023-03-14T02:10:28;14.70;84.00
53643;DHT22;39546;45.534;12.048;2023-03-14T02:16:32;14.70;83.30
53643;DHT22;39546;45.534;12.048;2023-03-14T02:22:35;14.60;83.80
53643;DHT22;39546;45.534;12.048;2023-03-14T02:28:38;14.70;84.10
53643;DHT22;39546;45.534;12.048;2023-03-14T02:34:42;14.70;84.10
53643;DHT22;39546;45.534;12.048;2023-03-14T02:40:45;14.70;84.10
53643;DHT22;39546;45.534;12.048;2023-03-14T02:46:47;14.80;84.00
53643;DHT22;39546;45.534;12.048;2023-03-14T02:52:49;14.90;84.00
53643;DHT22;39546;45.534;12.048;2023-03-14T02:58:51;14.80;84.30
53643;DHT22;39546;45.534;12.048;2023-03-14T03:04:54;14.80;84.20
53643;DHT22;39546;45.534;12.048;2023-03-14T03:10:57;14.70;84.30
53643;DHT22;39546;45.534;12.048;2023-03-14T03:17:00;14.70;84.10
53643;DHT22;39546;45.534;12.048;2023-03-14T03:23:02;14.70;84.20
53643;DHT22;39546;45.534;12.048;2023-03-14T03:29:05;14.70;84.30
53643;DHT22;39546;45.534;12.048;2023-03-14T03:35:07;14.60;84.30
53643;DHT22;39546;45.534;12.048;2023-03-14T03:41:11;14.50;84.10
53643;DHT22;39546;45.534;12.048;2023-03-14T03:47:15;14.40;84.50
53643;DHT22;39546;45.534;12.048;2023-03-14T03:53:19;14.50;84.40
53643;DHT22;39546;45.534;12.048;2023-03-14T03:59:21;14.50;84.40
53643;DHT22;39546;45.534;12.048;2023-03-14T04:05:23;14.50;84.60
53643;DHT22;39546;45.534;12.048;2023-03-14T04:11:26;14.50;84.40
53643;DHT22;39546;45.534;12.048;2023-03-14T04:17:29;14.40;84.50
53643;DHT22;39546;45.534;12.048;2023-03-14T04:23:31;14.50;84.80
53643;DHT22;39546;45.534;12.048;2023-03-14T04:29:33;14.60;84.80
53643;DHT22;39546;45.534;12.048;2023-03-14T04:35:36;14.80;85.00
53643;DHT22;39546;45.534;12.048;2023-03-14T04:41:38;15.00;85.00
53643;DHT22;39546;45.534;12.048;2023-03-14T04:47:41;15.00;84.50
53643;DHT22;39546;45.534;12.048;2023-03-14T04:53:47;15.00;84.60
53643;DHT22;39546;45.534;12.048;2023-03-14T04:59:49;14.90;84.60
53643;DHT22;39546;45.534;12.048;2023-03-14T05:05:56;15.00;84.60
53643;DHT22;39546;45.534;12.048;2023-03-14T05:12:07;14.80;84.60
53643;DHT22;39546;45.534;12.048;2023-03-14T05:18:10;14.60;84.40
53643;DHT22;39546;45.534;12.048;2023-03-14T05:24:12;14.40;83.40
53643;DHT22;39546;45.534;12.048;2023-03-14T05:30:17;14.10;84.40
53643;DHT22;39546;45.534;12.048;2023-03-14T05:36:20;14.10;84.30
53643;DHT22;39546;45.534;12.048;2023-03-14T05:42:23;13.80;84.20
53643;DHT22;39546;45.534;12.048;2023-03-14T05:48:26;14.00;84.10
53643;DHT22;39546;45.534;12.048;2023-03-14T05:54:28;14.10;84.40
53643;DHT22;39546;45.534;12.048;2023-03-14T06:00:30;13.90;84.30
53643;DHT22;39546;45.534;12.048;2023-03-14T06:06:33;14.10;84.90
53643;DHT22;39546;45.534;12.048;2023-03-14T06:12:35;14.20;83.90
53643;DHT22;39546;45.534;12.048;2023-03-14T06:18:37;14.20;84.50
53643;DHT22;39546;45.534;12.048;2023-03-14T06:24:41;14.00;84.40
53643;DHT22;39546;45.534;12.048;2023-03-14T06:30:44;14.00;84.60
53643;DHT22;39546;45.534;12.048;2023-03-14T06:36:48;14.20;84.90
53643;DHT22;39546;45.534;12.048;2023-03-14T06:42:52;14.20;84.70
53643;DHT22;39546;45.534;12.048;2023-03-14T06:48:55;14.30;84.90
53643;DHT22;39546;45.534;12.048;2023-03-14T06:54:57;14.60;84.70
53643;DHT22;39546;45.534;12.048;2023-03-14T07:01:01;14.80;85.00
53643;DHT22;39546;45.534;12.048;2023-03-14T07:07:04;14.80;84.90
53643;DHT22;39546;45.534;12.048;2023-03-14T07:13:08;14.80;86.30
53643;DHT22;39546;45.534;12.048;2023-03-14T07:19:11;14.80;86.30
53643;DHT22;39546;45.534;12.048;2023-03-14T07:25:14;14.70;87.10
53643;DHT22;39546;45.534;12.048;2023-03-14T07:31:16;14.80;87.70
53643;DHT22;39546;45.534;12.048;2023-03-14T07:37:18;14.80;87.50
53643;DHT22;39546;45.534;12.048;2023-03-14T07:43:20;14.50;87.50
53643;DHT22;39546;45.534;12.048;2023-03-14T07:49:23;14.80;87.80
53643;DHT22;39546;45.534;12.048;2023-03-14T07:55:25;14.70;86.30
53643;DHT22;39546;45.534;12.048;2023-03-14T08:01:27;14.50;87.30
53643;DHT22;39546;45.534;12.048;2023-03-14T08:07:29;14.60;87.40
53643;DHT22;39546;45.534;12.048;2023-03-14T08:13:32;14.70;87.20
53643;DHT22;39546;45.534;12.048;2023-03-14T08:19:34;14.80;87.20
53643;DHT22;39546;45.534;12.048;2023-03-14T08:25:38;14.80;86.90
53643;DHT22;39546;45.534;12.048;2023-03-14T08:31:40;14.80;86.90
53643;DHT22;39546;45.534;12.048;2023-03-14T08:37:42;14.80;86.70
53643;DHT22;39546;45.534;12.048;2023-03-14T08:43:44;14.80;86.90
53643;DHT22;39546;45.534;12.048;2023-03-14T08:49:46;14.80;86.70
53643;DHT22;39546;45.534;12.048;2023-03-14T08:55:55;14.70;86.70
53643;DHT22;39546;45.534;12.048;2023-03-14T09:01:57;14.80;86.80
53643;DHT22;39546;45.534;12.048;2023-03-14T09:07:59;14.70;86.50
53643;DHT22;39546;45.534;12.048;2023-03-14T09:14:01;14.60;87.10
53643;DHT22;39546;45.534;12.048;2023-03-14T09:20:04;14.60;87.80
53643;DHT22;39546;45.534;12.048;2023-03-14T09:26:09;14.80;87.80
53643;DHT22;39546;45.534;12.048;2023-03-14T09:32:11;14.80;87.50
53643;DHT22;39546;45.534;12.048;2023-03-14T09:38:13;14.70;88.00
53643;DHT22;39546;45.534;12.048;2023-03-14T09:50:17;14.70;87.70
53643;DHT22;39546;45.534;12.048;2023-03-14T09:56:23;14.60;88.00
53643;DHT22;39546;45.534;12.048;2023-03-14T10:02:34;14.70;88.00
53643;DHT22;39546;45.534;12.048;2023-03-14T10:08:42;14.70;87.70
53643;DHT22;39546;45.534;12.048;2023-03-14T10:14:51;14.70;87.60
53643;DHT22;39546;45.534;12.048;2023-03-14T10:27:21;14.60;88.10
53643;DHT22;39546;45.534;12.048;2023-03-14T10:33:25;14.70;88.10
53643;DHT22;39546;45.534;12.048;2023-03-14T10:45:42;14.70;88.40
53643;DHT22;39546;45.534;12.048;2023-03-14T10:51:45;14.50;88.30
53643;DHT22;39546;45.534;12.048;2023-03-14T10:57:47;14.50;88.80
53643;DHT22;39546;45.534;12.048;2023-03-14T11:10:46;14.50;88.30
53643;DHT22;39546;45.534;12.048;2023-03-14T11:35:37;14.70;88.80
53643;DHT22;39546;45.534;12.048;2023-03-14T11:41:49;14.70;88.50
53643;DHT22;39546;45.534;12.048;2023-03-14T11:48:28;14.60;88.60
53643;DHT22;39546;45.534;12.048;2023-03-14T11:54:52;14.70;88.80
53643;DHT22;39546;45.534;12.048;2023-03-14T12:00:57;14.90;88.60
53643;DHT22;39546;45.534;12.048;2023-03-14T12:07:06;15.00;88.40
53643;DHT22;39546;45.534;12.048;2023-03-14T12:13:12;15.00;88.10
53643;DHT22;39546;45.534;12.048;2023-03-14T12:25:28;15.00;88.00
53643;DHT22;39546;45.534;12.048;2023-03-14T12:31:43;14.80;87.70
53643;DHT22;39546;45.534;12.048;2023-03-14T12:37:51;14.80;87.80
53643;DHT22;39546;45.534;12.048;2023-03-14T12:43:55;14.80;88.00
53643;DHT22;39546;45.534;12.048;2023-03-14T12:50:12;14.90;88.00
53643;DHT22;39546;45.534;12.048;2023-03-14T12:56:37;15.10;87.90
53643;DHT22;39546;45.534;12.048;2023-03-14T13:02:43;15.30;87.70
53643;DHT22;39546;45.534;12.048;2023-03-14T13:08:46;15.40;87.80
53643;DHT22;39546;45.534;12.048;2023-03-14T13:14:50;15.30;88.10
53643;DHT22;39546;45.534;12.048;2023-03-14T13:21:03;15.40;88.30
53643;DHT22;39546;45.534;12.048;2023-03-14T13:27:19;15.30;88.00
53643;DHT22;39546;45.534;12.048;2023-03-14T13:33:26;15.20;87.80
53643;DHT22;39546;45.534;12.048;2023-03-14T13:39:28;15.00;87.90
53643;DHT22;39546;45.534;12.048;2023-03-14T13:45:31;15.20;88.50
53643;DHT22;39546;45.534;12.048;2023-03-14T13:51:33;15.50;88.60
53643;DHT22;39546;45.534;12.048;2023-03-14T13:57:50;15.70;89.00
53643;DHT22;39546;45.534;12.048;2023-03-14T14:03:58;15.70;89.10
53643;DHT22;39546;45.534;12.048;2023-03-14T14:10:00;15.90;89.40
53643;DHT22;39546;45.534;12.048;2023-03-14T14:16:03;15.90;89.60
53643;DHT22;39546;45.534;12.048;2023-03-14T14:22:08;16.00;89.70
53643;DHT22;39546;45.534;12.048;2023-03-14T14:28:17;16.20;89.40
53643;DHT22;39546;45.534;12.048;2023-03-14T14:34:20;16.20;89.20
53643;DHT22;39546;45.534;12.048;2023-03-14T14:40:24;16.20;89.50
53643;DHT22;39546;45.534;12.048;2023-03-14T14:46:30;16.20;89.50
53643;DHT22;39546;45.534;12.048;2023-03-14T14:52:44;16.20;89.30
53643;DHT22;39546;45.534;12.048;2023-03-14T14:58:48;16.20;89.50
53643;DHT22;39546;45.534;12.048;2023-03-14T15:04:51;16.30;89.10
53643;DHT22;39546;45.534;12.048;2023-03-14T15:10:54;16.20;88.70
53643;DHT22;39546;45.534;12.048;2023-03-14T15:16:56;16.20;88.90
53643;DHT22;39546;45.534;12.048;2023-03-14T15:22:58;16.30;89.00
53643;DHT22;39546;45.534;12.048;2023-03-14T15:29:00;16.30;88.90
53643;DHT22;39546;45.534;12.048;2023-03-14T15:35:03;16.70;89.20
53643;DHT22;39546;45.534;12.048;2023-03-14T15:41:05;17.70;88.00
53643;DHT22;39546;45.534;12.048;2023-03-14T15:47:10;18.90;86.40
53643;DHT22;39546;45.534;12.048;2023-03-14T15:53:13;18.70;87.70
53643;DHT22;39546;45.534;12.048;2023-03-14T15:59:15;18.70;87.80
53643;DHT22;39546;45.534;12.048;2023-03-14T16:05:17;19.00;88.10
53643;DHT22;39546;45.534;12.048;2023-03-14T16:11:22;19.00;87.70
53643;DHT22;39546;45.534;12.048;2023-03-14T16:17:25;18.80;88.30
53643;DHT22;39546;45.534;12.048;2023-03-14T16:23:28;18.60;89.00
53643;DHT22;39546;45.534;12.048;2023-03-14T16:29:31;18.30;89.40
53643;DHT22;39546;45.534;12.048;2023-03-14T16:35:33;17.80;90.20
53643;DHT22;39546;45.534;12.048;2023-03-14T16:41:35;17.50;90.90
53643;DHT22;39546;45.534;12.048;2023-03-14T16:47:37;17.20;91.20
53643;DHT22;39546;45.534;12.048;2023-03-14T16:53:40;17.00;91.50
53643;DHT22;39546;45.534;12.048;2023-03-14T16:59:42;16.90;91.60
53643;DHT22;39546;45.534;12.048;2023-03-14T17:05:46;16.70;91.90
53643;DHT22;39546;45.534;12.048;2023-03-14T17:11:48;16.70;91.90
53643;DHT22;39546;45.534;12.048;2023-03-14T17:17:50;16.50;91.90
53643;DHT22;39546;45.534;12.048;2023-03-14T17:23:53;16.50;91.90
53643;DHT22;39546;45.534;12.048;2023-03-14T17:29:55;16.40;91.90
53643;DHT22;39546;45.534;12.048;2023-03-14T17:35:57;16.30;91.70
53643;DHT22;39546;45.534;12.048;2023-03-14T17:41:59;16.30;91.60
53643;DHT22;39546;45.534;12.048;2023-03-14T17:48:02;16.20;91.30
53643;DHT22;39546;45.534;12.048;2023-03-14T17:54:05;16.20;91.00
53643;DHT22;39546;45.534;12.048;2023-03-14T18:00:08;16.10;91.10
53643;DHT22;39546;45.534;12.048;2023-03-14T18:06:12;16.10;91.00
53643;DHT22;39546;45.534;12.048;2023-03-14T18:12:14;16.10;90.80
53643;DHT22;39546;45.534;12.048;2023-03-14T18:18:17;15.90;90.50
53643;DHT22;39546;45.534;12.048;2023-03-14T18:24:20;15.90;90.40
53643;DHT22;39546;45.534;12.048;2023-03-14T18:30:22;16.00;90.10
53643;DHT22;39546;45.534;12.048;2023-03-14T18:36:25;16.00;89.90
53643;DHT22;39546;45.534;12.048;2023-03-14T18:42:27;16.00;89.80
53643;DHT22;39546;45.534;12.048;2023-03-14T18:48:30;15.90;89.60
53643;DHT22;39546;45.534;12.048;2023-03-14T18:54:32;15.90;89.40
53643;DHT22;39546;45.534;12.048;2023-03-14T19:00:34;15.80;89.50
53643;DHT22;39546;45.534;12.048;2023-03-14T19:06:39;15.80;89.50
53643;DHT22;39546;45.534;12.048;2023-03-14T19:12:42;15.80;89.40
53643;DHT22;39546;45.534;12.048;2023-03-14T19:18:44;15.80;89.20
53643;DHT22;39546;45.534;12.048;2023-03-14T19:24:46;15.70;89.00
53643;DHT22;39546;45.534;12.048;2023-03-14T19:30:49;15.70;88.90
53643;DHT22;39546;45.534;12.048;2023-03-14T19:36:51;15.60;88.90
53643;DHT22;39546;45.534;12.048;2023-03-14T19:42:53;15.60;88.90
53643;DHT22;39546;45.534;12.048;2023-03-14T19:48:56;15.60;88.60
53643;DHT22;39546;45.534;12.048;2023-03-14T19:54:58;15.50;88.60
53643;DHT22;39546;45.534;12.048;2023-03-14T20:01:04;15.40;88.60
53643;DHT22;39546;45.534;12.048;2023-03-14T20:07:11;15.30;88.70
53643;DHT22;39546;45.534;12.048;2023-03-14T20:13:13;15.20;88.50
53643;DHT22;39546;45.534;12.048;2023-03-14T20:19:16;15.10;88.70
53643;DHT22;39546;45.534;12.048;2023-03-14T20:25:18;15.20;88.90
53643;DHT22;39546;45.534;12.048;2023-03-14T20:31:21;15.20;88.70
53643;DHT22;39546;45.534;12.048;2023-03-14T20:37:23;15.10;88.50
53643;DHT22;39546;45.534;12.048;2023-03-14T20:43:28;15.00;88.70
53643;DHT22;39546;45.534;12.048;2023-03-14T20:49:30;15.10;88.80
53643;DHT22;39546;45.534;12.048;2023-03-14T20:55:32;15.00;88.60
53643;DHT22;39546;45.534;12.048;2023-03-14T21:01:34;15.00;88.50
53643;DHT22;39546;45.534;12.048;2023-03-14T21:07:37;15.00;88.30
53643;DHT22;39546;45.534;12.048;2023-03-14T21:13:42;15.00;88.10
53643;DHT22;39546;45.534;12.048;2023-03-14T21:19:44;14.90;88.20
53643;DHT22;39546;45.534;12.048;2023-03-14T21:25:48;14.80;88.30
53643;DHT22;39546;45.534;12.048;2023-03-14T21:31:51;14.80;88.30
53643;DHT22;39546;45.534;12.048;2023-03-14T21:37:53;14.80;88.10
53643;DHT22;39546;45.534;12.048;2023-03-14T21:43:55;14.80;88.00
53643;DHT22;39546;45.534;12.048;2023-03-14T21:49:58;14.80;87.90
53643;DHT22;39546;45.534;12.048;2023-03-14T21:56:00;14.80;87.80
53643;DHT22;39546;45.534;12.048;2023-03-14T22:02:10;14.70;87.80
53643;DHT22;39546;45.534;12.048;2023-03-14T22:08:14;14.70;87.70
53643;DHT22;39546;45.534;12.048;2023-03-14T22:14:17;14.70;87.70
53643;DHT22;39546;45.534;12.048;2023-03-14T22:20:19;14.60;87.50
53643;DHT22;39546;45.534;12.048;2023-03-14T22:26:21;14.40;87.60
53643;DHT22;39546;45.534;12.048;2023-03-14T22:32:24;14.20;87.40
53643;DHT22;39546;45.534;12.048;2023-03-14T22:38:26;14.10;87.50
53643;DHT22;39546;45.534;12.048;2023-03-14T22:44:28;14.10;87.70
53643;DHT22;39546;45.534;12.048;2023-03-14T22:50:33;14.20;87.50
53643;DHT22;39546;45.534;12.048;2023-03-14T22:56:35;14.20;87.30
53643;DHT22;39546;45.534;12.048;2023-03-14T23:02:38;14.40;87.20
53643;DHT22;39546;45.534;12.048;2023-03-14T23:08:41;14.40;87.10
53643;DHT22;39546;45.534;12.048;2023-03-14T23:14:43;14.40;87.20
53643;DHT22;39546;45.534;12.048;2023-03-14T23:20:45;14.50;87.20
53643;DHT22;39546;45.534;12.048;2023-03-14T23:26:49;14.50;87.00
53643;DHT22;39546;45.534;12.048;2023-03-14T23:32:52;14.30;87.00
53643;DHT22;39546;45.534;12.048;2023-03-14T23:38:54;14.30;86.90
53643;DHT22;39546;45.534;12.048;2023-03-14T23:44:56;14.30;86.80
53643;DHT22;39546;45.534;12.048;2023-03-14T23:51:00;14.30;86.60
53643;DHT22;39546;45.534;12.048;2023-03-14T23:57:03;14.20;86.50
